createdAt,value
2019-01-11T00:01:43.024Z,89.11
2019-01-11T00:04:14.552Z,89.13
2019-01-11T00:06:45.886Z,88.96
2019-01-11T00:09:18.393Z,89.10
2019-01-11T00:11:49.907Z,89.23
2019-01-11T00:14:21.365Z,89.23
2019-01-11T00:16:52.410Z,89.16
2019-01-11T00:19:23.524Z,89.28
2019-01-11T00:21:54.883Z,89.24
2019-01-11T00:24:25.679Z,88.88
2019-01-11T00:26:56.594Z,88.91
2019-01-11T00:29:27.611Z,89.06
2019-01-11T00:31:58.634Z,89.31
2019-01-11T00:34:30.059Z,89.33
2019-01-11T00:37:01.119Z,89.35
2019-01-11T00:39:32.195Z,89.31
2019-01-11T00:42:03.612Z,89.27
2019-01-11T00:44:35.260Z,89.35
2019-01-11T00:47:06.085Z,89.27
2019-01-11T00:49:37.022Z,89.41
2019-01-11T00:52:07.783Z,89.18
2019-01-11T00:54:38.853Z,88.48
2019-01-11T00:57:09.917Z,88.97
2019-01-11T00:59:40.652Z,89.08
2019-01-11T01:02:11.705Z,89.15
2019-01-11T01:04:42.495Z,89.36
2019-01-11T01:07:13.188Z,89.36
2019-01-11T01:09:44.190Z,89.34
2019-01-11T01:12:14.848Z,89.13
2019-01-11T01:14:45.656Z,88.86
2019-01-11T01:17:16.372Z,88.85
2019-01-11T01:19:48.558Z,88.92
2019-01-11T01:22:19.684Z,89.12
2019-01-11T01:24:50.414Z,89.27
2019-01-11T01:27:21.084Z,89.43
2019-01-11T01:29:51.833Z,89.40
2019-01-11T01:32:22.532Z,89.54
2019-01-11T01:34:53.234Z,89.70
2019-01-11T01:37:24.860Z,89.77
2019-01-11T01:39:55.880Z,89.84
2019-01-11T01:42:26.550Z,89.89
2019-01-11T01:44:57.475Z,89.59
2019-01-11T01:47:28.486Z,89.53
2019-01-11T01:49:59.456Z,89.60
2019-01-11T01:52:30.131Z,89.52
2019-01-11T01:55:00.944Z,89.52
2019-01-11T01:57:31.615Z,89.54
2019-01-11T02:00:02.353Z,89.59
2019-01-11T02:02:33.119Z,89.66
2019-01-11T02:05:05.099Z,89.78
2019-01-11T02:07:35.778Z,89.95
2019-01-11T02:10:08.813Z,89.85
2019-01-11T02:12:39.576Z,89.83
2019-01-11T02:15:11.918Z,89.75
2019-01-11T02:17:43.203Z,89.59
2019-01-11T02:20:16.832Z,89.60
2019-01-11T02:22:47.637Z,89.37
2019-01-11T02:25:18.770Z,89.49
2019-01-11T02:27:49.550Z,89.30
2019-01-11T02:30:24.744Z,89.48
2019-01-11T02:32:55.437Z,89.54
2019-01-11T02:35:26.837Z,89.42
2019-01-11T02:37:57.472Z,89.63
2019-01-11T02:40:29.040Z,89.59
2019-01-11T02:42:59.832Z,89.51
2019-01-11T02:45:30.806Z,89.62
2019-01-11T02:48:01.646Z,89.49
2019-01-11T02:50:32.466Z,89.42
2019-01-11T02:53:03.067Z,89.58
2019-01-11T02:55:34.110Z,89.61
2019-01-11T02:58:05.024Z,89.50
2019-01-11T03:00:35.679Z,89.48
2019-01-11T03:03:06.832Z,89.74
2019-01-11T03:05:37.451Z,89.83
2019-01-11T03:08:08.107Z,89.87
2019-01-11T03:10:39.488Z,89.93
2019-01-11T03:13:10.187Z,89.90
2019-01-11T03:15:41.062Z,89.71
2019-01-11T03:18:12.295Z,89.82
2019-01-11T03:20:43.111Z,89.94
2019-01-11T03:23:13.727Z,89.59
2019-01-11T03:25:44.614Z,89.73
2019-01-11T03:28:15.681Z,89.73
2019-01-11T03:30:47.077Z,89.42
2019-01-11T03:33:18.166Z,89.79
2019-01-11T03:35:48.854Z,89.98
2019-01-11T03:38:19.830Z,89.92
2019-01-11T03:40:50.589Z,90.00
2019-01-11T03:43:21.469Z,90.00
2019-01-11T03:46:33.907Z,89.92
2019-01-11T03:49:06.716Z,90.05
2019-01-11T03:51:37.570Z,90.15
2019-01-11T03:54:09.949Z,90.20
2019-01-11T03:56:41.229Z,90.19
2019-01-11T03:59:12.307Z,90.19
2019-01-11T04:01:43.160Z,90.19
2019-01-11T04:04:14.901Z,90.24
2019-01-11T04:06:46.002Z,90.25
2019-01-11T04:09:17.106Z,90.34
2019-01-11T04:11:48.385Z,90.24
2019-01-11T04:14:20.332Z,90.04
2019-01-11T04:16:52.309Z,89.77
2019-01-11T04:19:23.713Z,89.71
2019-01-11T04:22:12.048Z,89.73
2019-01-11T04:25:01.729Z,89.98
2019-01-11T04:27:32.554Z,90.30
2019-01-11T04:30:03.385Z,90.34
2019-01-11T04:32:34.084Z,90.19
2019-01-11T04:35:04.944Z,90.00
2019-01-11T04:37:35.701Z,89.87
2019-01-11T04:40:06.786Z,90.03
2019-01-11T04:42:38.590Z,90.35
2019-01-11T04:45:09.991Z,90.40
2019-01-11T04:47:40.702Z,90.44
2019-01-11T04:50:14.057Z,90.42
2019-01-11T04:52:46.204Z,90.46
2019-01-11T04:55:17.274Z,90.44
2019-01-11T04:57:48.013Z,90.35
2019-01-11T05:00:23.457Z,90.19
2019-01-11T05:02:54.740Z,89.89
2019-01-11T05:05:25.835Z,89.44
2019-01-11T05:07:57.118Z,88.80
2019-01-11T05:10:30.024Z,88.93
2019-01-11T05:13:16.724Z,89.25
2019-01-11T05:15:47.751Z,89.48
2019-01-11T05:18:18.414Z,89.28
2019-01-11T05:20:49.180Z,89.30
2019-01-11T05:23:19.952Z,89.68
2019-01-11T05:25:50.931Z,89.55
2019-01-11T05:28:21.680Z,89.79
2019-01-11T05:30:52.770Z,89.94
2019-01-11T05:33:23.808Z,90.16
2019-01-11T05:35:56.864Z,90.17
2019-01-11T05:38:27.820Z,89.87
2019-01-11T05:40:59.220Z,89.58
2019-01-11T05:43:30.126Z,89.54
2019-01-11T05:46:00.964Z,89.37
2019-01-11T05:48:33.072Z,89.41
2019-01-11T05:51:04.034Z,89.78
2019-01-11T05:53:34.706Z,90.17
2019-01-11T05:56:10.787Z,90.30
2019-01-11T05:58:50.904Z,90.28
2019-01-11T06:01:21.935Z,90.32
2019-01-11T06:03:53.043Z,89.73
2019-01-11T06:06:26.345Z,89.83
2019-01-11T06:08:57.297Z,90.02
2019-01-11T06:11:27.967Z,90.04
2019-01-11T06:13:59.007Z,90.16
2019-01-11T06:16:29.653Z,90.03
2019-01-11T06:19:00.470Z,89.71
2019-01-11T06:21:31.307Z,89.91
2019-01-11T06:24:02.397Z,90.32
2019-01-11T06:26:33.489Z,90.34
2019-01-11T06:29:04.371Z,90.46
2019-01-11T06:31:35.080Z,90.50
2019-01-11T06:34:05.838Z,90.33
2019-01-11T06:36:36.613Z,90.66
2019-01-11T06:39:09.081Z,90.73
2019-01-11T06:41:45.313Z,90.66
2019-01-11T06:44:16.448Z,90.79
2019-01-11T06:46:47.579Z,90.96
2019-01-11T06:49:18.613Z,90.85
2019-01-11T06:51:49.493Z,90.97
2019-01-11T06:54:20.256Z,90.61
2019-01-11T06:56:50.866Z,90.61
2019-01-11T06:59:21.968Z,90.91
2019-01-11T07:01:56.451Z,90.81
2019-01-11T07:04:27.490Z,90.87
2019-01-11T07:07:01.812Z,90.64
2019-01-11T07:09:36.433Z,90.62
2019-01-11T07:12:08.165Z,90.70
2019-01-11T07:14:39.333Z,90.62
2019-01-11T07:17:10.983Z,90.47
2019-01-11T07:19:42.163Z,90.38
2019-01-11T07:22:13.238Z,90.49
2019-01-11T07:24:45.934Z,90.56
2019-01-11T07:27:17.598Z,90.46
2019-01-11T07:29:48.377Z,90.32
2019-01-11T07:32:19.111Z,90.52
2019-01-11T07:34:50.017Z,90.44
2019-01-11T07:37:20.715Z,90.70
2019-01-11T07:39:51.406Z,90.42
2019-01-11T07:42:22.035Z,90.33
2019-01-11T07:44:52.744Z,90.54
2019-01-11T07:47:25.899Z,90.79
2019-01-11T07:49:56.571Z,90.63
2019-01-11T07:52:27.594Z,90.33
2019-01-11T07:54:58.630Z,90.40
2019-01-11T07:57:30.187Z,90.38
2019-01-11T08:00:03.286Z,90.49
2019-01-11T08:02:34.658Z,90.59
2019-01-11T08:05:05.799Z,90.36
2019-01-11T08:07:38.085Z,90.25
2019-01-11T08:10:09.326Z,90.48
2019-01-11T08:12:40.338Z,90.42
2019-01-11T08:15:11.504Z,90.37
2019-01-11T08:17:43.028Z,90.28
2019-01-11T08:20:14.349Z,90.52
2019-01-11T08:22:45.718Z,90.30
2019-01-11T08:25:17.766Z,90.48
2019-01-11T08:27:49.003Z,90.11
2019-01-11T08:30:19.816Z,90.06
2019-01-11T08:32:52.645Z,89.95
2019-01-11T08:35:23.233Z,90.14
2019-01-11T08:37:54.457Z,90.35
2019-01-11T08:40:25.389Z,90.35
2019-01-11T08:42:56.055Z,90.36
2019-01-11T08:45:26.642Z,90.16
2019-01-11T08:47:57.485Z,90.13
2019-01-11T08:50:28.115Z,90.14
2019-01-11T08:52:58.760Z,90.50
2019-01-11T08:55:31.734Z,90.52
2019-01-11T08:58:03.175Z,90.80
2019-01-11T09:00:34.346Z,90.46
2019-01-11T09:03:08.126Z,90.45
2019-01-11T09:05:39.456Z,90.60
2019-01-11T09:08:10.448Z,90.72
2019-01-11T09:10:43.513Z,90.81
2019-01-11T09:13:14.602Z,90.81
2019-01-11T09:15:45.829Z,91.00
2019-01-11T09:18:22.590Z,91.21
2019-01-11T09:20:53.629Z,91.26
2019-01-11T09:23:24.995Z,91.38
2019-01-11T09:25:56.750Z,91.34
2019-01-11T09:28:27.316Z,91.37
2019-01-11T09:30:57.958Z,91.51
2019-01-11T09:33:30.250Z,91.44
2019-01-11T09:36:00.843Z,90.97
2019-01-11T09:38:31.823Z,90.87
2019-01-11T09:41:07.025Z,91.09
2019-01-11T09:43:38.527Z,90.56
2019-01-11T09:46:09.555Z,91.02
2019-01-11T09:48:40.534Z,90.92
2019-01-11T09:51:15.698Z,90.71
2019-01-11T09:53:44.430Z,90.42
2019-01-11T09:56:16.001Z,90.66
2019-01-11T09:58:47.119Z,90.61
2019-01-11T10:01:19.838Z,90.54
2019-01-11T10:03:51.997Z,90.49
2019-01-11T10:06:23.014Z,90.18
2019-01-11T10:08:54.107Z,90.25
2019-01-11T10:11:24.859Z,90.46
2019-01-11T10:13:55.548Z,90.40
2019-01-11T10:16:26.531Z,90.28
2019-01-11T10:18:58.274Z,90.21
2019-01-11T10:21:30.653Z,90.34
2019-01-11T10:24:02.444Z,90.46
2019-01-11T10:26:33.127Z,89.88
2019-01-11T10:29:04.585Z,89.82
2019-01-11T10:31:35.252Z,90.10
2019-01-11T10:34:06.262Z,89.83
2019-01-11T10:36:37.217Z,89.83
2019-01-11T10:39:12.448Z,89.75
2019-01-11T10:41:43.697Z,89.76
2019-01-11T10:44:14.292Z,89.56
2019-01-11T10:46:49.135Z,89.89
2019-01-11T10:49:20.061Z,89.98
2019-01-11T10:51:50.582Z,89.82
2019-01-11T10:54:36.429Z,89.97
2019-01-11T10:57:07.601Z,89.82
2019-01-11T10:59:38.538Z,89.76
2019-01-11T11:02:09.567Z,89.95
2019-01-11T11:04:40.214Z,90.06
2019-01-11T11:07:11.377Z,89.88
2019-01-11T11:09:42.414Z,89.86
2019-01-11T11:12:13.933Z,89.69
2019-01-11T11:14:44.939Z,89.99
2019-01-11T11:17:15.661Z,90.59
2019-01-11T11:19:46.436Z,90.69
2019-01-11T11:22:17.087Z,90.56
2019-01-11T11:24:47.667Z,90.19
2019-01-11T11:27:19.412Z,90.12
2019-01-11T11:29:51.813Z,89.58
2019-01-11T11:32:44.910Z,89.41
2019-01-11T11:35:15.870Z,89.03
2019-01-11T11:37:47.230Z,89.09
2019-01-11T11:40:18.159Z,89.21
2019-01-11T11:42:49.283Z,89.08
2019-01-11T11:45:20.166Z,89.26
2019-01-11T11:47:50.795Z,89.43
2019-01-11T11:50:21.320Z,89.41
2019-01-11T11:52:53.128Z,89.47
2019-01-11T11:55:24.120Z,89.47
2019-01-11T11:57:55.115Z,89.60
2019-01-11T12:00:27.949Z,89.60
2019-01-11T12:02:58.577Z,89.40
2019-01-11T12:05:30.008Z,89.13
2019-01-11T12:08:01.358Z,89.52
2019-01-11T12:10:32.471Z,89.48
2019-01-11T12:13:03.475Z,89.55
2019-01-11T12:15:34.735Z,89.06
2019-01-11T12:18:05.887Z,89.23
2019-01-11T12:20:36.477Z,89.54
2019-01-11T12:23:07.138Z,89.96
2019-01-11T12:25:38.019Z,89.15
2019-01-11T12:28:08.904Z,89.59
2019-01-11T12:30:39.780Z,89.14
2019-01-11T12:33:11.015Z,88.99
2019-01-11T12:35:43.474Z,89.09
2019-01-11T12:38:14.336Z,89.21
2019-01-11T12:40:47.754Z,88.70
2019-01-11T12:43:18.896Z,89.04
2019-01-11T12:45:52.275Z,89.54
2019-01-11T12:48:23.223Z,88.58
2019-01-11T12:50:54.088Z,88.81
2019-01-11T12:53:24.702Z,89.01
2019-01-11T12:55:58.769Z,89.51
2019-01-11T12:58:29.759Z,89.41
2019-01-11T13:01:00.743Z,88.86
2019-01-11T13:03:31.408Z,88.97
2019-01-11T13:06:02.247Z,89.12
2019-01-11T13:08:32.867Z,89.29
2019-01-11T13:11:03.591Z,89.31
2019-01-11T13:13:34.437Z,88.97
2019-01-11T13:16:08.471Z,88.83
2019-01-11T13:18:39.282Z,89.24
2019-01-11T13:21:12.950Z,88.94
2019-01-11T13:23:43.692Z,88.85
2019-01-11T13:26:14.490Z,89.52
2019-01-11T13:28:45.423Z,89.25
2019-01-11T13:31:16.456Z,89.33
2019-01-11T13:33:47.176Z,89.40
2019-01-11T13:36:21.228Z,88.54
2019-01-11T13:38:51.754Z,88.91
2019-01-11T13:41:22.462Z,88.54
2019-01-11T13:43:53.612Z,89.07
2019-01-11T13:46:24.769Z,88.74
2019-01-11T13:48:55.354Z,88.61
2019-01-11T13:51:26.163Z,88.89
2019-01-11T13:53:57.013Z,88.78
2019-01-11T13:56:27.957Z,88.56
2019-01-11T13:58:58.796Z,88.94
2019-01-11T14:01:29.784Z,89.03
2019-01-11T14:04:00.438Z,88.57
2019-01-11T14:06:34.861Z,88.92
2019-01-11T14:09:08.210Z,88.41
2019-01-11T14:11:39.151Z,88.75
2019-01-11T14:14:12.044Z,88.23
2019-01-11T14:16:42.591Z,88.31
2019-01-11T14:19:13.513Z,88.10
2019-01-11T14:21:44.178Z,88.04
2019-01-11T14:24:14.712Z,88.05
2019-01-11T14:26:45.468Z,88.18
2019-01-11T14:29:16.351Z,88.16
2019-01-11T14:31:47.492Z,89.01
2019-01-11T14:34:18.139Z,88.71
2019-01-11T14:36:48.849Z,88.79
2019-01-11T14:39:19.439Z,88.69
2019-01-11T14:41:50.444Z,88.52
2019-01-11T14:44:21.055Z,88.68
2019-01-11T14:46:51.586Z,88.55
2019-01-11T14:49:25.185Z,88.32
2019-01-11T14:51:55.718Z,88.06
2019-01-11T14:54:26.390Z,88.05
2019-01-11T14:56:57.043Z,87.99
2019-01-11T14:59:27.630Z,88.31
2019-01-11T15:01:58.234Z,88.27
2019-01-11T15:04:30.534Z,88.45
2019-01-11T15:07:01.303Z,88.41
2019-01-11T15:09:31.943Z,88.20
2019-01-11T15:12:02.618Z,88.20
2019-01-11T15:14:33.430Z,88.42
2019-01-11T15:17:04.013Z,88.33
2019-01-11T15:19:34.650Z,88.06
2019-01-11T15:22:06.004Z,87.66
2019-01-11T15:24:36.550Z,87.50
2019-01-11T15:27:10.470Z,87.80
2019-01-11T15:29:41.374Z,87.79
2019-01-11T15:32:11.902Z,87.60
2019-01-11T15:34:45.285Z,87.36
2019-01-11T15:37:19.209Z,87.66
2019-01-11T15:39:51.695Z,87.29
2019-01-11T15:42:23.405Z,87.11
2019-01-11T15:44:53.989Z,86.92
2019-01-11T15:47:24.668Z,86.39
2019-01-11T15:49:55.872Z,86.42
2019-01-11T15:52:33.004Z,86.67
2019-01-11T15:54:58.786Z,86.92
2019-01-11T15:57:45.324Z,86.91
2019-01-11T16:00:23.400Z,86.47
2019-01-11T16:02:54.333Z,85.95
2019-01-11T16:05:24.931Z,86.01
2019-01-11T16:07:55.811Z,85.66
2019-01-11T16:10:26.579Z,85.45
2019-01-11T16:13:31.021Z,85.44
2019-01-11T16:16:29.747Z,85.62
2019-01-11T16:19:00.832Z,85.85
2019-01-11T16:21:31.424Z,85.79
2019-01-11T16:24:02.346Z,85.96
2019-01-11T16:26:32.998Z,86.13
2019-01-11T16:29:03.631Z,85.95
2019-01-11T16:31:34.539Z,85.52
2019-01-11T16:34:05.624Z,85.66
2019-01-11T16:36:39.226Z,85.48
2019-01-11T16:39:13.170Z,85.67
2019-01-11T16:41:44.857Z,85.29
2019-01-11T16:44:15.613Z,85.38
2019-01-11T16:46:46.531Z,84.95
2019-01-11T16:49:17.137Z,85.18
2019-01-11T16:51:47.745Z,84.87
2019-01-11T16:54:18.334Z,84.81
2019-01-11T16:56:49.203Z,84.86
2019-01-11T16:59:19.804Z,84.82
2019-01-11T17:01:50.447Z,84.76
2019-01-11T17:04:21.187Z,84.77
2019-01-11T17:06:51.741Z,85.20
2019-01-11T17:09:22.541Z,85.24
2019-01-11T17:11:53.330Z,84.80
2019-01-11T17:14:24.422Z,84.44
2019-01-11T17:16:55.452Z,83.59
2019-01-11T17:19:26.131Z,83.83
2019-01-11T17:21:56.787Z,83.80
2019-01-11T17:24:27.690Z,84.49
2019-01-11T17:26:58.683Z,84.75
2019-01-11T17:29:29.827Z,84.61
2019-01-11T17:32:00.749Z,83.42
2019-01-11T17:34:31.385Z,83.42
2019-01-11T17:37:02.263Z,83.58
2019-01-11T17:39:32.910Z,83.26
2019-01-11T17:42:03.608Z,83.59
2019-01-11T17:44:37.341Z,83.75
2019-01-11T17:47:07.866Z,83.95
2019-01-11T17:49:38.784Z,83.64
2019-01-11T17:52:09.741Z,83.55
2019-01-11T17:54:40.246Z,83.37
2019-01-11T17:57:11.061Z,83.50
2019-01-11T17:59:41.656Z,83.33
2019-01-11T18:02:12.293Z,83.02
2019-01-11T18:04:43.224Z,82.75
2019-01-11T18:07:14.173Z,83.21
2019-01-11T18:09:44.714Z,83.29
2019-01-11T18:12:19.952Z,83.34
2019-01-11T18:14:47.669Z,83.68
2019-01-11T18:17:18.649Z,83.22
2019-01-11T18:19:49.280Z,82.87
2019-01-11T18:28:09.061Z,82.08
2019-01-11T18:30:39.754Z,82.05
2019-01-11T18:33:10.713Z,82.45
2019-01-11T18:35:41.817Z,82.61
2019-01-11T18:38:12.511Z,82.60
2019-01-11T18:40:43.976Z,82.66
2019-01-11T18:43:15.109Z,82.59
2019-01-11T18:45:46.730Z,82.53
2019-01-11T18:48:17.794Z,82.69
2019-01-11T18:50:48.787Z,82.74
2019-01-11T18:53:20.130Z,82.70
2019-01-11T18:55:51.423Z,82.66
2019-01-11T18:58:22.449Z,82.63
2019-01-11T19:00:53.396Z,82.34
2019-01-11T19:03:24.763Z,82.58
2019-01-11T19:05:55.776Z,82.26
2019-01-11T19:08:26.724Z,82.37
2019-01-11T19:10:58.068Z,82.59
2019-01-11T19:13:29.387Z,82.51
2019-01-11T19:16:00.738Z,82.67
2019-01-11T19:18:32.394Z,82.75
2019-01-11T19:21:06.203Z,82.52
2019-01-11T19:23:37.529Z,82.57
2019-01-11T19:26:09.047Z,82.47
2019-01-11T19:28:40.447Z,82.39
2019-01-11T19:31:11.376Z,82.61
2019-01-11T19:33:42.984Z,82.46
2019-01-11T19:36:13.997Z,82.44
2019-01-11T19:38:45.363Z,82.57
2019-01-11T19:41:16.292Z,82.45
2019-01-11T19:43:47.291Z,82.49
2019-01-11T19:46:18.246Z,82.72
2019-01-11T19:48:49.221Z,82.98
2019-01-11T19:51:20.236Z,82.91
2019-01-11T19:53:51.160Z,82.63
2019-01-11T19:56:21.787Z,82.74
2019-01-11T19:58:52.865Z,82.65
2019-01-11T20:01:23.876Z,82.60
2019-01-11T20:03:55.223Z,82.04
2019-01-11T20:06:26.587Z,82.38
2019-01-11T20:08:57.965Z,82.50
2019-01-11T20:11:28.895Z,82.54
2019-01-11T20:13:59.646Z,82.47
2019-01-11T20:16:30.315Z,82.13
2019-01-11T20:19:01.290Z,82.20
2019-01-11T20:21:32.273Z,81.90
2019-01-11T20:24:03.179Z,82.32
2019-01-11T20:26:34.224Z,82.06
2019-01-11T20:29:04.878Z,82.22
2019-01-11T20:31:35.468Z,81.96
2019-01-11T20:34:06.134Z,81.93
2019-01-11T20:36:46.274Z,82.14
2019-01-11T20:39:16.820Z,81.81
2019-01-11T20:41:47.482Z,81.94
2019-01-11T20:44:18.151Z,82.21
2019-01-11T20:46:48.796Z,82.07
2019-01-11T20:49:19.402Z,81.65
2019-01-11T20:51:50.016Z,81.42
2019-01-11T20:54:20.897Z,81.18
2019-01-11T20:56:51.739Z,81.41
2019-01-11T20:59:22.388Z,81.31
2019-01-11T21:01:52.968Z,81.55
2019-01-11T21:04:23.531Z,81.82
2019-01-11T21:06:54.216Z,82.27
2019-01-11T21:09:24.854Z,82.23
2019-01-11T21:11:55.510Z,82.57
2019-01-11T21:14:26.148Z,82.57
2019-01-11T21:16:56.748Z,82.58
2019-01-11T21:19:27.403Z,82.29
2019-01-11T21:21:58.126Z,82.39
2019-01-11T21:24:28.772Z,82.39
2019-01-11T21:26:59.791Z,82.05
2019-01-11T21:29:30.471Z,81.63
2019-01-11T21:32:01.466Z,81.50
2019-01-11T21:34:32.093Z,81.83
2019-01-11T21:37:02.792Z,81.59
2019-01-11T21:39:33.318Z,81.67
2019-01-11T21:42:04.971Z,82.16
2019-01-11T21:44:35.969Z,82.13
2019-01-11T21:47:06.744Z,82.31
2019-01-11T21:49:37.515Z,82.03
2019-01-11T21:52:08.168Z,81.38
2019-01-11T21:54:38.769Z,81.13
2019-01-11T21:57:09.370Z,81.20
2019-01-11T21:59:40.276Z,80.32
2019-01-11T22:02:10.901Z,79.74
2019-01-11T22:04:41.499Z,78.70
2019-01-11T22:07:12.162Z,78.04
2019-01-11T22:09:43.021Z,78.33
2019-01-11T22:12:13.736Z,78.54
2019-01-11T22:14:44.680Z,78.07
2019-01-11T22:17:15.395Z,78.54
2019-01-11T22:19:46.261Z,77.72
2019-01-11T22:22:16.950Z,77.72
2019-01-11T22:24:47.747Z,77.46
2019-01-11T22:27:18.373Z,77.89
2019-01-11T22:29:49.385Z,78.15
2019-01-11T22:32:19.990Z,78.28
2019-01-11T22:34:50.589Z,77.73
2019-01-11T22:37:21.194Z,78.19
2019-01-11T22:39:52.355Z,78.46
2019-01-11T22:42:23.277Z,78.61
2019-01-11T22:44:53.913Z,79.39
2019-01-11T22:47:24.580Z,79.25
2019-01-11T22:49:55.944Z,78.92
2019-01-11T22:52:26.576Z,79.04
2019-01-11T22:54:57.203Z,79.46
2019-01-11T22:57:27.810Z,79.66
2019-01-11T22:59:58.378Z,79.71
2019-01-11T23:02:36.637Z,79.93
2019-01-11T23:05:12.221Z,80.34
2019-01-11T23:07:57.587Z,80.55
2019-01-11T23:11:41.054Z,80.61
2019-01-11T23:14:12.026Z,80.55
2019-01-11T23:16:59.760Z,79.32
2019-01-11T23:19:30.351Z,78.15
2019-01-11T23:22:00.984Z,77.41
2019-01-11T23:24:31.608Z,77.39
2019-01-11T23:27:02.266Z,78.30
2019-01-11T23:29:33.314Z,78.25
2019-01-11T23:32:03.896Z,78.27
2019-01-11T23:34:35.280Z,78.47
2019-01-11T23:37:05.821Z,78.17
2019-01-11T23:39:36.421Z,78.50
2019-01-11T23:42:07.428Z,78.79
2019-01-11T23:44:38.059Z,78.88
2019-01-11T23:47:08.761Z,78.71
2019-01-11T23:49:39.327Z,78.89
2019-01-11T23:52:10.253Z,78.89
2019-01-11T23:54:40.931Z,79.17
2019-01-11T23:57:11.930Z,79.34
2019-01-11T23:59:42.583Z,79.56
